sensor_id;sensor_type;location;lat;lon;timestamp;pressure;altitude;pressure_sealevel;temperature;humidity
19236;BME280;9752;54.270;12.470;2024-02-04T00:03:03;101596.06;;;5.27;100.00
19236;BME280;9752;54.270;12.470;2024-02-04T00:08:05;101596.56;;;5.42;100.00
19236;BME280;9752;54.270;12.470;2024-02-04T00:13:07;101586.72;;;5.47;100.00
19236;BME280;9752;54.270;12.470;2024-02-04T00:18:10;101566.75;;;5.44;100.00
19236;BME280;9752;54.270;12.470;2024-02-04T00:23:11;101579.06;;;5.57;100.00
19236;BME280;9752;54.270;12.470;2024-02-04T00:28:13;101566.53;;;5.52;100.00
19236;BME280;9752;54.270;12.470;2024-02-04T00:33:16;101553.09;;;5.54;100.00
19236;BME280;9752;54.270;12.470;2024-02-04T00:38:18;101554.28;;;5.58;100.00
19236;BME280;9752;54.270;12.470;2024-02-04T00:43:20;101549.56;;;5.54;100.00
19236;BME280;9752;54.270;12.470;2024-02-04T00:48:23;101543.16;;;5.40;100.00
19236;BME280;9752;54.270;12.470;2024-02-04T00:53:25;101560.66;;;5.53;100.00
19236;BME280;9752;54.270;12.470;2024-02-04T00:58:28;101545.28;;;5.63;100.00
19236;BME280;9752;54.270;12.470;2024-02-04T01:03:31;101535.13;;;5.64;100.00
19236;BME280;9752;54.270;12.470;2024-02-04T01:08:34;101522.56;;;5.67;100.00
19236;BME280;9752;54.270;12.470;2024-02-04T01:13:37;101535.00;;;5.63;100.00
19236;BME280;9752;54.270;12.470;2024-02-04T01:18:40;101514.84;;;5.67;100.00
19236;BME280;9752;54.270;12.470;2024-02-04T01:23:42;101521.28;;;5.73;100.00
19236;BME280;9752;54.270;12.470;2024-02-04T01:28:44;101516.47;;;5.67;100.00
19236;BME280;9752;54.270;12.470;2024-02-04T01:33:47;101509.25;;;5.63;100.00
19236;BME280;9752;54.270;12.470;2024-02-04T01:38:49;101511.00;;;5.73;100.00
19236;BME280;9752;54.270;12.470;2024-02-04T01:43:50;101505.84;;;5.73;100.00
19236;BME280;9752;54.270;12.470;2024-02-04T01:48:54;101511.13;;;5.55;100.00
19236;BME280;9752;54.270;12.470;2024-02-04T01:53:56;101511.97;;;5.45;100.00
19236;BME280;9752;54.270;12.470;2024-02-04T01:58:58;101486.91;;;5.34;100.00
19236;BME280;9752;54.270;12.470;2024-02-04T02:04:02;101485.00;;;5.23;100.00
19236;BME280;9752;54.270;12.470;2024-02-04T02:09:04;101474.31;;;5.18;100.00
19236;BME280;9752;54.270;12.470;2024-02-04T02:14:11;101478.06;;;5.22;100.00
19236;BME280;9752;54.270;12.470;2024-02-04T02:19:31;101482.28;;;5.21;100.00
19236;BME280;9752;54.270;12.470;2024-02-04T02:24:38;101460.47;;;5.26;100.00
19236;BME280;9752;54.270;12.470;2024-02-04T02:29:40;101466.53;;;5.27;100.00
19236;BME280;9752;54.270;12.470;2024-02-04T02:34:41;101464.59;;;5.43;100.00
19236;BME280;9752;54.270;12.470;2024-02-04T02:39:51;101463.97;;;5.46;100.00
19236;BME280;9752;54.270;12.470;2024-02-04T02:44:55;101442.44;;;5.54;100.00
19236;BME280;9752;54.270;12.470;2024-02-04T02:49:58;101445.97;;;5.46;100.00
19236;BME280;9752;54.270;12.470;2024-02-04T02:55:03;101439.44;;;5.50;100.00
19236;BME280;9752;54.270;12.470;2024-02-04T03:00:06;101443.63;;;5.58;100.00
19236;BME280;9752;54.270;12.470;2024-02-04T03:05:08;101444.84;;;5.53;100.00
19236;BME280;9752;54.270;12.470;2024-02-04T03:10:11;101432.34;;;5.66;100.00
19236;BME280;9752;54.270;12.470;2024-02-04T03:15:13;101428.63;;;5.73;100.00
19236;BME280;9752;54.270;12.470;2024-02-04T03:20:16;101429.09;;;5.87;100.00
19236;BME280;9752;54.270;12.470;2024-02-04T03:25:19;101425.25;;;5.93;100.00
19236;BME280;9752;54.270;12.470;2024-02-04T03:30:20;101428.16;;;5.96;100.00
19236;BME280;9752;54.270;12.470;2024-02-04T03:35:22;101419.78;;;5.98;100.00
19236;BME280;9752;54.270;12.470;2024-02-04T03:40:26;101408.59;;;5.98;100.00
19236;BME280;9752;54.270;12.470;2024-02-04T03:45:28;101416.72;;;6.02;100.00
19236;BME280;9752;54.270;12.470;2024-02-04T03:50:29;101391.19;;;5.95;100.00
19236;BME280;9752;54.270;12.470;2024-02-04T03:55:32;101374.88;;;6.05;100.00
19236;BME280;9752;54.270;12.470;2024-02-04T04:00:34;101389.66;;;5.97;100.00
19236;BME280;9752;54.270;12.470;2024-02-04T04:05:36;101393.59;;;5.94;100.00
19236;BME280;9752;54.270;12.470;2024-02-04T04:10:39;101397.00;;;6.03;100.00
19236;BME280;9752;54.270;12.470;2024-02-04T04:15:40;101385.59;;;5.91;100.00
19236;BME280;9752;54.270;12.470;2024-02-04T04:20:42;101366.94;;;5.93;100.00
19236;BME280;9752;54.270;12.470;2024-02-04T04:25:45;101357.72;;;5.95;100.00
19236;BME280;9752;54.270;12.470;2024-02-04T04:30:47;101359.53;;;5.96;100.00
19236;BME280;9752;54.270;12.470;2024-02-04T04:35:49;101346.34;;;5.93;100.00
19236;BME280;9752;54.270;12.470;2024-02-04T04:40:52;101348.06;;;6.03;100.00
19236;BME280;9752;54.270;12.470;2024-02-04T04:45:53;101328.78;;;5.98;100.00
19236;BME280;9752;54.270;12.470;2024-02-04T04:50:55;101336.50;;;6.08;100.00
19236;BME280;9752;54.270;12.470;2024-02-04T04:55:58;101316.81;;;6.09;100.00
19236;BME280;9752;54.270;12.470;2024-02-04T05:01:00;101323.63;;;6.08;100.00
19236;BME280;9752;54.270;12.470;2024-02-04T05:06:01;101342.97;;;6.13;100.00
19236;BME280;9752;54.270;12.470;2024-02-04T05:11:04;101326.13;;;6.17;100.00
19236;BME280;9752;54.270;12.470;2024-02-04T05:16:06;101323.66;;;6.18;100.00
19236;BME280;9752;54.270;12.470;2024-02-04T05:21:08;101300.75;;;6.21;100.00
19236;BME280;9752;54.270;12.470;2024-02-04T05:26:11;101301.25;;;6.17;100.00
19236;BME280;9752;54.270;12.470;2024-02-04T05:31:13;101298.91;;;6.10;100.00
19236;BME280;9752;54.270;12.470;2024-02-04T05:36:14;101286.19;;;6.12;100.00
19236;BME280;9752;54.270;12.470;2024-02-04T05:41:17;101285.38;;;6.13;100.00
19236;BME280;9752;54.270;12.470;2024-02-04T05:46:19;101274.47;;;6.15;100.00
19236;BME280;9752;54.270;12.470;2024-02-04T05:51:21;101290.53;;;6.13;100.00
19236;BME280;9752;54.270;12.470;2024-02-04T05:56:25;101279.63;;;6.15;100.00
19236;BME280;9752;54.270;12.470;2024-02-04T06:01:27;101280.13;;;6.11;100.00
19236;BME280;9752;54.270;12.470;2024-02-04T06:06:28;101274.34;;;6.14;100.00
19236;BME280;9752;54.270;12.470;2024-02-04T06:11:31;101273.69;;;6.16;100.00
19236;BME280;9752;54.270;12.470;2024-02-04T06:16:33;101283.22;;;6.17;100.00
19236;BME280;9752;54.270;12.470;2024-02-04T06:21:35;101274.84;;;6.20;100.00
19236;BME280;9752;54.270;12.470;2024-02-04T06:26:38;101276.53;;;6.19;100.00
19236;BME280;9752;54.270;12.470;2024-02-04T06:31:44;101276.53;;;6.30;100.00
19236;BME280;9752;54.270;12.470;2024-02-04T06:36:45;101284.25;;;6.30;100.00
19236;BME280;9752;54.270;12.470;2024-02-04T06:41:48;101275.22;;;6.14;100.00
19236;BME280;9752;54.270;12.470;2024-02-04T06:46:50;101254.75;;;6.05;100.00
19236;BME280;9752;54.270;12.470;2024-02-04T06:51:51;101259.13;;;5.96;100.00
19236;BME280;9752;54.270;12.470;2024-02-04T06:56:58;101251.97;;;5.94;100.00
19236;BME280;9752;54.270;12.470;2024-02-04T07:02:00;101262.06;;;6.01;100.00
19236;BME280;9752;54.270;12.470;2024-02-04T07:07:01;101252.56;;;6.00;100.00
19236;BME280;9752;54.270;12.470;2024-02-04T07:12:05;101254.22;;;5.99;100.00
19236;BME280;9752;54.270;12.470;2024-02-04T07:17:07;101244.97;;;6.01;100.00
19236;BME280;9752;54.270;12.470;2024-02-04T07:22:09;101227.06;;;6.03;100.00
19236;BME280;9752;54.270;12.470;2024-02-04T07:27:12;101236.59;;;6.04;100.00
19236;BME280;9752;54.270;12.470;2024-02-04T07:32:13;101223.72;;;6.04;100.00
19236;BME280;9752;54.270;12.470;2024-02-04T07:37:15;101217.00;;;6.16;100.00
19236;BME280;9752;54.270;12.470;2024-02-04T07:42:19;101207.34;;;6.24;100.00
19236;BME280;9752;54.270;12.470;2024-02-04T07:47:21;101219.34;;;6.23;100.00
19236;BME280;9752;54.270;12.470;2024-02-04T07:52:23;101222.19;;;6.27;100.00
19236;BME280;9752;54.270;12.470;2024-02-04T07:57:26;101210.59;;;6.21;100.00
19236;BME280;9752;54.270;12.470;2024-02-04T08:02:27;101195.13;;;6.32;100.00
19236;BME280;9752;54.270;12.470;2024-02-04T08:07:29;101221.66;;;6.31;100.00
19236;BME280;9752;54.270;12.470;2024-02-04T08:12:32;101204.78;;;6.34;100.00
19236;BME280;9752;54.270;12.470;2024-02-04T08:17:34;101190.72;;;6.41;100.00
19236;BME280;9752;54.270;12.470;2024-02-04T08:22:35;101194.09;;;6.30;100.00
19236;BME280;9752;54.270;12.470;2024-02-04T08:27:38;101201.19;;;6.32;100.00
19236;BME280;9752;54.270;12.470;2024-02-04T08:32:40;101219.47;;;6.35;100.00
19236;BME280;9752;54.270;12.470;2024-02-04T08:37:42;101218.03;;;6.39;100.00
19236;BME280;9752;54.270;12.470;2024-02-04T08:42:45;101200.00;;;6.39;100.00
19236;BME280;9752;54.270;12.470;2024-02-04T08:47:47;101201.19;;;6.32;100.00
19236;BME280;9752;54.270;12.470;2024-02-04T08:52:49;101181.22;;;6.40;100.00
19236;BME280;9752;54.270;12.470;2024-02-04T08:57:52;101166.00;;;6.43;100.00
19236;BME280;9752;54.270;12.470;2024-02-04T09:02:53;101156.22;;;6.49;100.00
19236;BME280;9752;54.270;12.470;2024-02-04T09:07:55;101168.56;;;6.53;100.00
19236;BME280;9752;54.270;12.470;2024-02-04T09:12:58;101149.25;;;6.48;100.00
19236;BME280;9752;54.270;12.470;2024-02-04T09:18:00;101141.91;;;6.42;100.00
19236;BME280;9752;54.270;12.470;2024-02-04T09:23:02;101130.56;;;6.40;100.00
19236;BME280;9752;54.270;12.470;2024-02-04T09:28:05;101114.47;;;6.43;100.00
19236;BME280;9752;54.270;12.470;2024-02-04T09:33:07;101111.78;;;6.41;100.00
19236;BME280;9752;54.270;12.470;2024-02-04T09:38:09;101125.16;;;6.37;100.00
19236;BME280;9752;54.270;12.470;2024-02-04T09:43:12;101130.72;;;6.32;100.00
19236;BME280;9752;54.270;12.470;2024-02-04T09:48:14;101135.38;;;6.36;100.00
19236;BME280;9752;54.270;12.470;2024-02-04T09:53:21;101143.31;;;6.39;100.00
19236;BME280;9752;54.270;12.470;2024-02-04T09:58:25;101143.84;;;6.35;100.00
19236;BME280;9752;54.270;12.470;2024-02-04T10:03:26;101139.84;;;6.38;100.00
19236;BME280;9752;54.270;12.470;2024-02-04T10:08:28;101153.09;;;6.43;100.00
19236;BME280;9752;54.270;12.470;2024-02-04T10:13:42;101165.75;;;6.40;100.00
19236;BME280;9752;54.270;12.470;2024-02-04T10:18:44;101159.44;;;6.36;100.00
19236;BME280;9752;54.270;12.470;2024-02-04T10:23:45;101170.91;;;6.30;100.00
19236;BME280;9752;54.270;12.470;2024-02-04T10:28:49;101164.19;;;6.32;100.00
19236;BME280;9752;54.270;12.470;2024-02-04T10:33:50;101161.38;;;6.29;100.00
19236;BME280;9752;54.270;12.470;2024-02-04T10:38:52;101142.47;;;6.18;100.00
19236;BME280;9752;54.270;12.470;2024-02-04T10:43:56;101154.19;;;6.14;100.00
19236;BME280;9752;54.270;12.470;2024-02-04T10:49:00;101156.38;;;6.10;100.00
19236;BME280;9752;54.270;12.470;2024-02-04T10:54:07;101154.72;;;6.00;100.00
19236;BME280;9752;54.270;12.470;2024-02-04T10:59:11;101133.44;;;6.13;100.00
19236;BME280;9752;54.270;12.470;2024-02-04T11:04:14;101135.13;;;6.22;100.00
19236;BME280;9752;54.270;12.470;2024-02-04T11:09:16;101133.06;;;6.29;100.00
19236;BME280;9752;54.270;12.470;2024-02-04T11:14:20;101132.03;;;6.27;100.00
19236;BME280;9752;54.270;12.470;2024-02-04T11:19:31;101121.97;;;6.40;100.00
19236;BME280;9752;54.270;12.470;2024-02-04T11:24:50;101111.91;;;6.33;100.00
19236;BME280;9752;54.270;12.470;2024-02-04T11:29:56;101093.63;;;6.40;100.00
19236;BME280;9752;54.270;12.470;2024-02-04T11:34:58;101100.94;;;6.35;100.00
19236;BME280;9752;54.270;12.470;2024-02-04T11:40:04;101090.16;;;6.39;100.00
19236;BME280;9752;54.270;12.470;2024-02-04T11:45:08;101085.72;;;6.49;100.00
19236;BME280;9752;54.270;12.470;2024-02-04T11:50:10;101083.25;;;6.60;100.00
19236;BME280;9752;54.270;12.470;2024-02-04T11:55:14;101063.72;;;6.74;100.00
19236;BME280;9752;54.270;12.470;2024-02-04T12:00:17;101073.00;;;6.72;100.00
19236;BME280;9752;54.270;12.470;2024-02-04T12:05:19;101050.00;;;6.86;100.00
19236;BME280;9752;54.270;12.470;2024-02-04T12:10:22;101080.63;;;6.71;100.00
19236;BME280;9752;54.270;12.470;2024-02-04T12:15:25;101063.16;;;6.89;100.00
19236;BME280;9752;54.270;12.470;2024-02-04T12:20:27;101051.97;;;6.78;100.00
19236;BME280;9752;54.270;12.470;2024-02-04T12:25:29;101047.91;;;6.92;100.00
19236;BME280;9752;54.270;12.470;2024-02-04T12:30:32;101039.56;;;6.84;100.00
19236;BME280;9752;54.270;12.470;2024-02-04T12:35:34;101046.13;;;6.91;100.00
19236;BME280;9752;54.270;12.470;2024-02-04T12:40:36;101052.72;;;6.87;100.00
19236;BME280;9752;54.270;12.470;2024-02-04T12:45:39;101056.31;;;6.89;100.00
19236;BME280;9752;54.270;12.470;2024-02-04T12:50:41;101042.06;;;6.94;100.00
19236;BME280;9752;54.270;12.470;2024-02-04T12:55:42;101028.06;;;6.91;100.00
19236;BME280;9752;54.270;12.470;2024-02-04T13:00:45;101052.47;;;6.84;100.00
19236;BME280;9752;54.270;12.470;2024-02-04T13:05:47;101035.91;;;6.92;100.00
19236;BME280;9752;54.270;12.470;2024-02-04T13:10:54;101032.91;;;6.76;100.00
19236;BME280;9752;54.270;12.470;2024-02-04T13:15:57;101029.88;;;6.70;100.00
19236;BME280;9752;54.270;12.470;2024-02-04T13:20:59;101033.47;;;6.61;100.00
19236;BME280;9752;54.270;12.470;2024-02-04T13:26:01;101050.72;;;6.73;100.00
19236;BME280;9752;54.270;12.470;2024-02-04T13:31:04;101031.09;;;6.75;100.00
19236;BME280;9752;54.270;12.470;2024-02-04T13:36:06;101026.19;;;6.78;100.00
19236;BME280;9752;54.270;12.470;2024-02-04T13:41:08;101018.00;;;6.72;100.00
19236;BME280;9752;54.270;12.470;2024-02-04T13:46:11;101017.78;;;6.80;100.00
19236;BME280;9752;54.270;12.470;2024-02-04T13:51:13;101008.91;;;6.77;100.00
19236;BME280;9752;54.270;12.470;2024-02-04T13:56:15;101032.13;;;6.77;100.00
19236;BME280;9752;54.270;12.470;2024-02-04T14:01:20;101039.84;;;6.77;100.00
19236;BME280;9752;54.270;12.470;2024-02-04T14:06:23;101013.50;;;6.91;100.00
19236;BME280;9752;54.270;12.470;2024-02-04T14:11:24;101023.97;;;6.82;100.00
19236;BME280;9752;54.270;12.470;2024-02-04T14:16:27;101011.22;;;6.84;100.00
19236;BME280;9752;54.270;12.470;2024-02-04T14:21:29;101014.34;;;6.80;100.00
19236;BME280;9752;54.270;12.470;2024-02-04T14:26:31;101004.50;;;6.86;100.00
19236;BME280;9752;54.270;12.470;2024-02-04T14:31:34;101025.81;;;6.73;100.00
19236;BME280;9752;54.270;12.470;2024-02-04T14:36:36;101009.44;;;6.83;100.00
19236;BME280;9752;54.270;12.470;2024-02-04T14:41:38;101006.84;;;6.83;100.00
19236;BME280;9752;54.270;12.470;2024-02-04T14:46:41;101018.22;;;6.75;100.00
19236;BME280;9752;54.270;12.470;2024-02-04T14:51:42;100997.59;;;6.75;100.00
19236;BME280;9752;54.270;12.470;2024-02-04T14:56:45;101020.44;;;6.70;100.00
19236;BME280;9752;54.270;12.470;2024-02-04T15:01:48;101012.94;;;6.73;100.00
19236;BME280;9752;54.270;12.470;2024-02-04T15:06:50;101007.06;;;6.64;100.00
19236;BME280;9752;54.270;12.470;2024-02-04T15:11:52;101005.50;;;6.66;100.00
19236;BME280;9752;54.270;12.470;2024-02-04T15:16:56;100992.09;;;6.70;100.00
19236;BME280;9752;54.270;12.470;2024-02-04T15:21:59;101015.16;;;6.69;100.00
19236;BME280;9752;54.270;12.470;2024-02-04T15:27:01;100995.69;;;6.72;100.00
19236;BME280;9752;54.270;12.470;2024-02-04T15:32:07;101000.16;;;6.75;100.00
19236;BME280;9752;54.270;12.470;2024-02-04T15:37:10;100986.25;;;6.73;100.00
19236;BME280;9752;54.270;12.470;2024-02-04T15:42:11;101039.63;;;6.74;100.00
19236;BME280;9752;54.270;12.470;2024-02-04T15:47:15;100990.94;;;6.67;100.00
19236;BME280;9752;54.270;12.470;2024-02-04T15:52:17;101008.31;;;6.69;100.00
19236;BME280;9752;54.270;12.470;2024-02-04T15:57:22;101001.00;;;6.63;100.00
19236;BME280;9752;54.270;12.470;2024-02-04T16:02:29;100981.34;;;6.54;100.00
19236;BME280;9752;54.270;12.470;2024-02-04T16:07:31;100985.75;;;6.44;100.00
19236;BME280;9752;54.270;12.470;2024-02-04T16:12:33;100993.00;;;6.38;100.00
19236;BME280;9752;54.270;12.470;2024-02-04T16:17:38;100988.75;;;6.39;100.00
19236;BME280;9752;54.270;12.470;2024-02-04T16:22:40;100979.03;;;6.47;100.00
19236;BME280;9752;54.270;12.470;2024-02-04T16:27:42;100998.22;;;6.50;100.00
19236;BME280;9752;54.270;12.470;2024-02-04T16:32:46;100996.44;;;6.49;100.00
19236;BME280;9752;54.270;12.470;2024-02-04T16:37:48;100991.41;;;6.51;100.00
19236;BME280;9752;54.270;12.470;2024-02-04T16:42:49;100989.44;;;6.58;100.00
19236;BME280;9752;54.270;12.470;2024-02-04T16:47:53;100978.22;;;6.58;100.00
19236;BME280;9752;54.270;12.470;2024-02-04T16:52:55;100988.66;;;6.59;100.00
19236;BME280;9752;54.270;12.470;2024-02-04T16:57:57;100981.53;;;6.67;100.00
19236;BME280;9752;54.270;12.470;2024-02-04T17:03:00;100981.19;;;6.62;100.00
19236;BME280;9752;54.270;12.470;2024-02-04T17:08:04;100958.00;;;6.52;100.00
19236;BME280;9752;54.270;12.470;2024-02-04T17:13:07;100984.03;;;6.55;100.00
19236;BME280;9752;54.270;12.470;2024-02-04T17:18:12;100954.13;;;6.57;100.00
19236;BME280;9752;54.270;12.470;2024-02-04T17:23:18;100966.25;;;6.58;100.00
19236;BME280;9752;54.270;12.470;2024-02-04T17:28:21;100975.47;;;6.67;100.00
19236;BME280;9752;54.270;12.470;2024-02-04T17:33:25;100959.53;;;6.60;100.00
19236;BME280;9752;54.270;12.470;2024-02-04T17:38:27;100949.31;;;6.62;100.00
19236;BME280;9752;54.270;12.470;2024-02-04T17:43:29;100971.41;;;6.58;100.00
19236;BME280;9752;54.270;12.470;2024-02-04T17:48:32;100972.94;;;6.56;100.00
19236;BME280;9752;54.270;12.470;2024-02-04T17:53:34;100956.38;;;6.53;100.00
19236;BME280;9752;54.270;12.470;2024-02-04T17:58:35;100957.66;;;6.48;100.00
19236;BME280;9752;54.270;12.470;2024-02-04T18:03:39;100939.75;;;6.49;100.00
19236;BME280;9752;54.270;12.470;2024-02-04T18:08:41;100952.63;;;6.49;100.00
19236;BME280;9752;54.270;12.470;2024-02-04T18:13:43;100954.19;;;6.47;100.00
19236;BME280;9752;54.270;12.470;2024-02-04T18:18:46;100955.50;;;6.42;100.00
19236;BME280;9752;54.270;12.470;2024-02-04T18:23:48;100932.31;;;6.42;100.00
19236;BME280;9752;54.270;12.470;2024-02-04T18:28:53;100933.88;;;6.40;100.00
19236;BME280;9752;54.270;12.470;2024-02-04T18:33:58;100910.03;;;6.42;100.00
19236;BME280;9752;54.270;12.470;2024-02-04T18:38:59;100909.88;;;6.41;100.00
19236;BME280;9752;54.270;12.470;2024-02-04T18:44:01;100927.16;;;6.42;100.00
19236;BME280;9752;54.270;12.470;2024-02-04T18:49:05;100897.00;;;6.41;100.00
19236;BME280;9752;54.270;12.470;2024-02-04T18:54:06;100908.88;;;6.39;100.00
19236;BME280;9752;54.270;12.470;2024-02-04T18:59:09;100891.84;;;6.41;100.00
19236;BME280;9752;54.270;12.470;2024-02-04T19:04:12;100901.31;;;6.52;100.00
19236;BME280;9752;54.270;12.470;2024-02-04T19:09:14;100884.63;;;6.47;100.00
19236;BME280;9752;54.270;12.470;2024-02-04T19:14:16;100893.41;;;6.39;100.00
19236;BME280;9752;54.270;12.470;2024-02-04T19:19:21;100899.38;;;6.38;100.00
19236;BME280;9752;54.270;12.470;2024-02-04T19:24:23;100893.97;;;6.35;100.00
19236;BME280;9752;54.270;12.470;2024-02-04T19:29:25;100899.91;;;6.34;100.00
19236;BME280;9752;54.270;12.470;2024-02-04T19:34:28;100895.56;;;6.44;100.00
19236;BME280;9752;54.270;12.470;2024-02-04T19:39:30;100894.38;;;6.51;100.00
19236;BME280;9752;54.270;12.470;2024-02-04T19:44:32;100897.69;;;6.60;100.00
19236;BME280;9752;54.270;12.470;2024-02-04T19:49:35;100900.47;;;6.63;100.00
19236;BME280;9752;54.270;12.470;2024-02-04T19:54:42;100890.03;;;6.62;100.00
19236;BME280;9752;54.270;12.470;2024-02-04T19:59:44;100881.66;;;6.64;100.00
19236;BME280;9752;54.270;12.470;2024-02-04T20:04:47;100874.72;;;6.63;100.00
19236;BME280;9752;54.270;12.470;2024-02-04T20:09:49;100849.47;;;6.59;100.00
19236;BME280;9752;54.270;12.470;2024-02-04T20:14:51;100842.00;;;6.62;100.00
19236;BME280;9752;54.270;12.470;2024-02-04T20:19:54;100839.31;;;6.61;100.00
19236;BME280;9752;54.270;12.470;2024-02-04T20:24:59;100830.97;;;6.53;100.00
19236;BME280;9752;54.270;12.470;2024-02-04T20:30:00;100826.97;;;6.57;100.00
19236;BME280;9752;54.270;12.470;2024-02-04T20:35:05;100833.69;;;6.55;100.00
19236;BME280;9752;54.270;12.470;2024-02-04T20:40:08;100833.31;;;6.50;100.00
19236;BME280;9752;54.270;12.470;2024-02-04T20:45:10;100828.63;;;6.56;100.00
19236;BME280;9752;54.270;12.470;2024-02-04T20:50:13;100832.47;;;6.61;100.00
19236;BME280;9752;54.270;12.470;2024-02-04T20:55:15;100809.06;;;6.70;100.00
19236;BME280;9752;54.270;12.470;2024-02-04T21:00:17;100818.13;;;6.65;100.00
19236;BME280;9752;54.270;12.470;2024-02-04T21:05:20;100815.91;;;6.70;100.00
19236;BME280;9752;54.270;12.470;2024-02-04T21:10:22;100813.09;;;6.67;100.00
19236;BME280;9752;54.270;12.470;2024-02-04T21:15:24;100799.19;;;6.64;100.00
19236;BME280;9752;54.270;12.470;2024-02-04T21:20:29;100793.50;;;6.69;100.00
19236;BME280;9752;54.270;12.470;2024-02-04T21:25:31;100802.91;;;6.68;100.00
19236;BME280;9752;54.270;12.470;2024-02-04T21:30:33;100793.03;;;6.62;100.00
19236;BME280;9752;54.270;12.470;2024-02-04T21:35:36;100780.47;;;6.67;100.00
19236;BME280;9752;54.270;12.470;2024-02-04T21:40:37;100773.13;;;6.72;100.00
19236;BME280;9752;54.270;12.470;2024-02-04T21:45:41;100778.28;;;6.72;100.00
19236;BME280;9752;54.270;12.470;2024-02-04T21:50:44;100771.31;;;6.71;100.00
19236;BME280;9752;54.270;12.470;2024-02-04T21:55:46;100772.84;;;6.57;100.00
19236;BME280;9752;54.270;12.470;2024-02-04T22:00:48;100776.31;;;6.57;100.00
19236;BME280;9752;54.270;12.470;2024-02-04T22:05:51;100770.47;;;6.60;100.00
19236;BME280;9752;54.270;12.470;2024-02-04T22:10:52;100772.41;;;6.62;100.00
19236;BME280;9752;54.270;12.470;2024-02-04T22:15:54;100769.91;;;6.52;100.00
19236;BME280;9752;54.270;12.470;2024-02-04T22:20:57;100748.66;;;6.55;100.00
19236;BME280;9752;54.270;12.470;2024-02-04T22:25:59;100746.38;;;6.48;100.00
19236;BME280;9752;54.270;12.470;2024-02-04T22:31:01;100778.91;;;6.57;100.00
19236;BME280;9752;54.270;12.470;2024-02-04T22:36:06;100783.81;;;6.54;100.00
19236;BME280;9752;54.270;12.470;2024-02-04T22:41:08;100775.84;;;6.51;100.00
19236;BME280;9752;54.270;12.470;2024-02-04T22:46:11;100796.38;;;6.28;100.00
19236;BME280;9752;54.270;12.470;2024-02-04T22:51:14;100786.41;;;6.20;100.00
19236;BME280;9752;54.270;12.470;2024-02-04T22:56:17;100814.72;;;6.20;100.00
19236;BME280;9752;54.270;12.470;2024-02-04T23:01:19;100825.25;;;6.23;100.00
19236;BME280;9752;54.270;12.470;2024-02-04T23:06:22;100937.16;;;6.27;100.00
19236;BME280;9752;54.270;12.470;2024-02-04T23:11:24;100983.09;;;6.33;100.00
19236;BME280;9752;54.270;12.470;2024-02-04T23:16:25;100992.25;;;6.29;100.00
19236;BME280;9752;54.270;12.470;2024-02-04T23:21:29;101009.53;;;6.30;100.00
19236;BME280;9752;54.270;12.470;2024-02-04T23:26:31;101038.22;;;6.35;100.00
19236;BME280;9752;54.270;12.470;2024-02-04T23:31:33;101070.69;;;6.33;100.00
19236;BME280;9752;54.270;12.470;2024-02-04T23:36:36;101109.72;;;6.27;100.00
19236;BME280;9752;54.270;12.470;2024-02-04T23:41:37;101124.81;;;6.22;100.00
19236;BME280;9752;54.270;12.470;2024-02-04T23:46:39;101172.09;;;6.23;100.00
19236;BME280;9752;54.270;12.470;2024-02-04T23:51:42;101194.22;;;6.31;100.00
19236;BME280;9752;54.270;12.470;2024-02-04T23:56:44;101211.88;;;6.37;100.00
